Aviation Digital Data Service (ADDS)

Output produced by TAFs form (0454 UTC 30 March 2017)
found at http://www.aviationweather.gov/adds/tafs/
 
METAR text: ZBAA 300430Z 14005MPS 100V170 CAVOK 15/M05 Q1024 NOSIG
Conditions at: ZBAA (BEIJING/PEKING , CN) observed 0430 UTC 30 March 2017
Temperature: 15.0°C (59°F)
Dewpoint: -5.0°C (23°F) [RH = 25%]
Pressure (altimeter): 30.24 inches Hg (1024.0 mb)
Winds: from the SE (140 degrees) at 12 MPH (10 knots; 5.2 m/s)
Visibility: 6 or more miles (10+ km)
Ceiling: ceiling and visibility are OK
Clouds: unknown
Weather: no significant weather observed at this time

Forecast for: ZBAA (BEIJING/PEKING , CN)
Text: TAF ZBAA 300320Z 3006/3106 10004MPS 5000 HZ NSC TX15/3007Z TN04/3021Z
Forecast period: 0600 UTC 30 March 2017 to 0600 UTC 31 March 2017
Forecast type: FROM: standard forecast or significant change
Winds: from the E (100 degrees) at 9 MPH (8 knots; 4.2 m/s)
Visibility: 3 miles (5 km)
Clouds: not forecast
Weather: HZ  (haze)